sensor_id;sensor_type;location;lat;lon;timestamp;P1;durP1;ratioP1;P2;durP2;ratioP2
7669;SDS011;3877;42.562;27.636;2023-02-01T00:01:50;18.17;;;10.90;;
7669;SDS011;3877;42.562;27.636;2023-02-01T00:04:17;16.37;;;10.77;;
7669;SDS011;3877;42.562;27.636;2023-02-01T00:06:45;17.30;;;10.90;;
7669;SDS011;3877;42.562;27.636;2023-02-01T00:09:12;17.17;;;9.77;;
7669;SDS011;3877;42.562;27.636;2023-02-01T00:11:39;15.90;;;10.03;;
7669;SDS011;3877;42.562;27.636;2023-02-01T00:14:06;15.30;;;10.40;;
7669;SDS011;3877;42.562;27.636;2023-02-01T00:16:34;16.83;;;10.00;;
7669;SDS011;3877;42.562;27.636;2023-02-01T00:19:02;13.67;;;9.27;;
7669;SDS011;3877;42.562;27.636;2023-02-01T00:21:31;14.77;;;9.53;;
7669;SDS011;3877;42.562;27.636;2023-02-01T00:23:59;14.53;;;9.90;;
7669;SDS011;3877;42.562;27.636;2023-02-01T00:26:29;13.90;;;9.17;;
7669;SDS011;3877;42.562;27.636;2023-02-01T00:28:56;15.43;;;9.50;;
7669;SDS011;3877;42.562;27.636;2023-02-01T00:31:23;13.60;;;8.83;;
7669;SDS011;3877;42.562;27.636;2023-02-01T00:33:50;12.80;;;9.17;;
7669;SDS011;3877;42.562;27.636;2023-02-01T00:36:17;16.73;;;9.50;;
7669;SDS011;3877;42.562;27.636;2023-02-01T00:38:44;15.50;;;9.33;;
7669;SDS011;3877;42.562;27.636;2023-02-01T00:41:13;12.77;;;8.57;;
7669;SDS011;3877;42.562;27.636;2023-02-01T00:43:40;14.50;;;9.33;;
7669;SDS011;3877;42.562;27.636;2023-02-01T00:46:07;15.23;;;10.00;;
7669;SDS011;3877;42.562;27.636;2023-02-01T00:48:34;13.77;;;9.10;;
7669;SDS011;3877;42.562;27.636;2023-02-01T00:51:01;13.13;;;8.93;;
7669;SDS011;3877;42.562;27.636;2023-02-01T00:53:27;14.10;;;8.93;;
7669;SDS011;3877;42.562;27.636;2023-02-01T00:55:54;13.60;;;9.17;;
7669;SDS011;3877;42.562;27.636;2023-02-01T00:58:23;10.70;;;8.07;;
7669;SDS011;3877;42.562;27.636;2023-02-01T01:01:00;13.80;;;8.90;;
7669;SDS011;3877;42.562;27.636;2023-02-01T01:03:27;14.23;;;8.77;;
7669;SDS011;3877;42.562;27.636;2023-02-01T01:05:56;14.40;;;9.77;;
7669;SDS011;3877;42.562;27.636;2023-02-01T01:08:23;14.70;;;9.20;;
7669;SDS011;3877;42.562;27.636;2023-02-01T01:10:50;12.67;;;9.70;;
7669;SDS011;3877;42.562;27.636;2023-02-01T01:13:17;13.27;;;8.57;;
7669;SDS011;3877;42.562;27.636;2023-02-01T01:15:45;12.40;;;8.63;;
7669;SDS011;3877;42.562;27.636;2023-02-01T01:18:12;12.27;;;7.93;;
7669;SDS011;3877;42.562;27.636;2023-02-01T01:20:39;12.77;;;8.60;;
7669;SDS011;3877;42.562;27.636;2023-02-01T01:23:07;12.53;;;7.77;;
7669;SDS011;3877;42.562;27.636;2023-02-01T01:25:36;10.73;;;7.80;;
7669;SDS011;3877;42.562;27.636;2023-02-01T01:28:03;11.27;;;8.07;;
7669;SDS011;3877;42.562;27.636;2023-02-01T01:30:30;11.27;;;7.90;;
7669;SDS011;3877;42.562;27.636;2023-02-01T01:32:58;13.17;;;7.33;;
7669;SDS011;3877;42.562;27.636;2023-02-01T01:35:25;11.80;;;8.07;;
7669;SDS011;3877;42.562;27.636;2023-02-01T01:37:52;11.60;;;7.60;;
7669;SDS011;3877;42.562;27.636;2023-02-01T01:40:19;12.07;;;7.83;;
7669;SDS011;3877;42.562;27.636;2023-02-01T01:42:46;11.30;;;7.60;;
7669;SDS011;3877;42.562;27.636;2023-02-01T01:45:19;17.47;;;8.90;;
7669;SDS011;3877;42.562;27.636;2023-02-01T01:47:47;13.87;;;8.80;;
7669;SDS011;3877;42.562;27.636;2023-02-01T01:50:18;11.70;;;7.90;;
7669;SDS011;3877;42.562;27.636;2023-02-01T01:52:46;12.70;;;8.20;;
7669;SDS011;3877;42.562;27.636;2023-02-01T01:55:15;12.37;;;8.50;;
7669;SDS011;3877;42.562;27.636;2023-02-01T01:57:43;13.20;;;8.47;;
7669;SDS011;3877;42.562;27.636;2023-02-01T02:00:13;12.20;;;8.10;;
7669;SDS011;3877;42.562;27.636;2023-02-01T02:02:42;11.97;;;8.17;;
7669;SDS011;3877;42.562;27.636;2023-02-01T02:05:09;11.73;;;7.93;;
7669;SDS011;3877;42.562;27.636;2023-02-01T02:07:39;12.53;;;8.13;;
7669;SDS011;3877;42.562;27.636;2023-02-01T02:10:07;10.77;;;8.07;;
7669;SDS011;3877;42.562;27.636;2023-02-01T02:12:36;13.43;;;8.93;;
7669;SDS011;3877;42.562;27.636;2023-02-01T02:15:05;12.23;;;7.83;;
7669;SDS011;3877;42.562;27.636;2023-02-01T02:17:33;13.20;;;8.60;;
7669;SDS011;3877;42.562;27.636;2023-02-01T02:20:12;12.10;;;8.17;;
7669;SDS011;3877;42.562;27.636;2023-02-01T02:25:37;14.83;;;8.70;;
7669;SDS011;3877;42.562;27.636;2023-02-01T02:28:12;10.87;;;7.63;;
7669;SDS011;3877;42.562;27.636;2023-02-01T02:36:17;13.60;;;8.80;;
7669;SDS011;3877;42.562;27.636;2023-02-01T02:38:47;10.07;;;6.23;;
7669;SDS011;3877;42.562;27.636;2023-02-01T02:41:18;14.53;;;7.67;;
7669;SDS011;3877;42.562;27.636;2023-02-01T02:43:59;13.50;;;8.43;;
7669;SDS011;3877;42.562;27.636;2023-02-01T02:46:46;15.80;;;7.93;;
7669;SDS011;3877;42.562;27.636;2023-02-01T02:49:33;11.57;;;7.93;;
7669;SDS011;3877;42.562;27.636;2023-02-01T02:52:04;12.23;;;7.50;;
7669;SDS011;3877;42.562;27.636;2023-02-01T02:54:49;11.00;;;7.50;;
7669;SDS011;3877;42.562;27.636;2023-02-01T02:57:19;10.40;;;6.50;;
7669;SDS011;3877;42.562;27.636;2023-02-01T03:00:05;11.50;;;7.43;;
7669;SDS011;3877;42.562;27.636;2023-02-01T03:02:50;12.63;;;7.30;;
7669;SDS011;3877;42.562;27.636;2023-02-01T03:05:34;11.73;;;7.33;;
7669;SDS011;3877;42.562;27.636;2023-02-01T03:08:04;13.00;;;6.87;;
7669;SDS011;3877;42.562;27.636;2023-02-01T03:10:40;11.77;;;7.17;;
7669;SDS011;3877;42.562;27.636;2023-02-01T03:13:09;9.67;;;6.57;;
7669;SDS011;3877;42.562;27.636;2023-02-01T03:15:37;14.83;;;7.97;;
7669;SDS011;3877;42.562;27.636;2023-02-01T03:18:10;10.13;;;7.13;;
7669;SDS011;3877;42.562;27.636;2023-02-01T03:20:38;11.77;;;7.53;;
7669;SDS011;3877;42.562;27.636;2023-02-01T03:23:07;12.43;;;6.90;;
7669;SDS011;3877;42.562;27.636;2023-02-01T03:25:34;12.80;;;7.77;;
7669;SDS011;3877;42.562;27.636;2023-02-01T03:28:02;14.37;;;8.10;;
7669;SDS011;3877;42.562;27.636;2023-02-01T03:30:31;11.67;;;7.13;;
7669;SDS011;3877;42.562;27.636;2023-02-01T03:32:59;11.07;;;7.40;;
7669;SDS011;3877;42.562;27.636;2023-02-01T03:35:28;10.03;;;7.13;;
7669;SDS011;3877;42.562;27.636;2023-02-01T03:37:56;8.83;;;6.97;;
7669;SDS011;3877;42.562;27.636;2023-02-01T03:40:28;11.17;;;7.77;;
7669;SDS011;3877;42.562;27.636;2023-02-01T03:42:56;11.43;;;7.53;;
7669;SDS011;3877;42.562;27.636;2023-02-01T03:45:26;10.60;;;7.23;;
7669;SDS011;3877;42.562;27.636;2023-02-01T03:47:55;11.67;;;7.47;;
7669;SDS011;3877;42.562;27.636;2023-02-01T03:50:22;10.77;;;7.67;;
7669;SDS011;3877;42.562;27.636;2023-02-01T03:52:51;10.97;;;7.77;;
7669;SDS011;3877;42.562;27.636;2023-02-01T03:55:20;10.03;;;7.03;;
7669;SDS011;3877;42.562;27.636;2023-02-01T03:57:51;11.30;;;7.50;;
7669;SDS011;3877;42.562;27.636;2023-02-01T04:00:19;13.03;;;7.60;;
7669;SDS011;3877;42.562;27.636;2023-02-01T04:02:47;12.87;;;8.07;;
7669;SDS011;3877;42.562;27.636;2023-02-01T04:05:14;10.90;;;7.30;;
7669;SDS011;3877;42.562;27.636;2023-02-01T04:07:40;13.83;;;7.60;;
7669;SDS011;3877;42.562;27.636;2023-02-01T04:10:08;11.20;;;7.63;;
7669;SDS011;3877;42.562;27.636;2023-02-01T04:12:35;10.20;;;7.17;;
7669;SDS011;3877;42.562;27.636;2023-02-01T04:15:04;11.37;;;7.60;;
7669;SDS011;3877;42.562;27.636;2023-02-01T04:17:31;12.87;;;8.00;;
7669;SDS011;3877;42.562;27.636;2023-02-01T04:19:58;14.00;;;7.93;;
7669;SDS011;3877;42.562;27.636;2023-02-01T04:22:24;16.43;;;8.67;;
7669;SDS011;3877;42.562;27.636;2023-02-01T04:24:51;8.50;;;6.37;;
7669;SDS011;3877;42.562;27.636;2023-02-01T04:27:18;10.00;;;6.43;;
7669;SDS011;3877;42.562;27.636;2023-02-01T04:29:45;11.20;;;6.53;;
7669;SDS011;3877;42.562;27.636;2023-02-01T04:32:13;9.50;;;6.47;;
7669;SDS011;3877;42.562;27.636;2023-02-01T04:34:41;11.00;;;6.97;;
7669;SDS011;3877;42.562;27.636;2023-02-01T04:37:08;9.90;;;6.40;;
7669;SDS011;3877;42.562;27.636;2023-02-01T04:39:35;11.70;;;7.10;;
7669;SDS011;3877;42.562;27.636;2023-02-01T04:42:02;11.43;;;6.93;;
7669;SDS011;3877;42.562;27.636;2023-02-01T04:44:29;9.53;;;6.77;;
7669;SDS011;3877;42.562;27.636;2023-02-01T04:46:55;9.20;;;6.43;;
7669;SDS011;3877;42.562;27.636;2023-02-01T04:49:24;9.93;;;6.93;;
7669;SDS011;3877;42.562;27.636;2023-02-01T04:51:52;8.40;;;6.47;;
7669;SDS011;3877;42.562;27.636;2023-02-01T04:54:18;8.57;;;6.70;;
7669;SDS011;3877;42.562;27.636;2023-02-01T04:56:45;8.73;;;6.37;;
7669;SDS011;3877;42.562;27.636;2023-02-01T04:59:12;12.10;;;6.70;;
7669;SDS011;3877;42.562;27.636;2023-02-01T05:01:39;8.43;;;5.73;;
7669;SDS011;3877;42.562;27.636;2023-02-01T05:04:06;11.10;;;6.70;;
7669;SDS011;3877;42.562;27.636;2023-02-01T05:06:34;8.10;;;6.17;;
7669;SDS011;3877;42.562;27.636;2023-02-01T05:09:01;8.07;;;5.73;;
7669;SDS011;3877;42.562;27.636;2023-02-01T05:11:28;7.70;;;5.80;;
7669;SDS011;3877;42.562;27.636;2023-02-01T05:14:12;10.57;;;5.77;;
7669;SDS011;3877;42.562;27.636;2023-02-01T05:16:39;6.93;;;5.53;;
7669;SDS011;3877;42.562;27.636;2023-02-01T05:19:06;7.47;;;5.60;;
7669;SDS011;3877;42.562;27.636;2023-02-01T05:21:34;10.03;;;5.83;;
7669;SDS011;3877;42.562;27.636;2023-02-01T05:24:01;8.30;;;5.90;;
7669;SDS011;3877;42.562;27.636;2023-02-01T05:26:38;10.10;;;6.47;;
7669;SDS011;3877;42.562;27.636;2023-02-01T05:29:05;13.77;;;9.50;;
7669;SDS011;3877;42.562;27.636;2023-02-01T05:31:32;10.97;;;6.60;;
7669;SDS011;3877;42.562;27.636;2023-02-01T05:33:59;8.83;;;6.30;;
7669;SDS011;3877;42.562;27.636;2023-02-01T05:36:26;9.83;;;6.90;;
7669;SDS011;3877;42.562;27.636;2023-02-01T05:38:54;10.47;;;6.53;;
7669;SDS011;3877;42.562;27.636;2023-02-01T05:41:21;11.07;;;7.80;;
7669;SDS011;3877;42.562;27.636;2023-02-01T05:43:48;11.67;;;6.67;;
7669;SDS011;3877;42.562;27.636;2023-02-01T05:46:15;77.87;;;36.93;;
7669;SDS011;3877;42.562;27.636;2023-02-01T05:48:42;16.37;;;10.67;;
7669;SDS011;3877;42.562;27.636;2023-02-01T05:51:09;10.97;;;6.40;;
7669;SDS011;3877;42.562;27.636;2023-02-01T05:53:36;11.70;;;6.70;;
7669;SDS011;3877;42.562;27.636;2023-02-01T05:56:05;8.80;;;5.90;;
7669;SDS011;3877;42.562;27.636;2023-02-01T05:58:32;7.63;;;5.63;;
7669;SDS011;3877;42.562;27.636;2023-02-01T06:00:59;11.77;;;7.03;;
7669;SDS011;3877;42.562;27.636;2023-02-01T06:03:26;9.73;;;6.60;;
7669;SDS011;3877;42.562;27.636;2023-02-01T06:05:53;8.93;;;6.23;;
7669;SDS011;3877;42.562;27.636;2023-02-01T06:08:20;6.97;;;5.40;;
7669;SDS011;3877;42.562;27.636;2023-02-01T06:10:46;11.50;;;6.53;;
7669;SDS011;3877;42.562;27.636;2023-02-01T06:13:15;9.80;;;6.30;;
7669;SDS011;3877;42.562;27.636;2023-02-01T06:15:41;11.87;;;5.70;;
7669;SDS011;3877;42.562;27.636;2023-02-01T06:18:09;11.17;;;6.57;;
7669;SDS011;3877;42.562;27.636;2023-02-01T06:20:36;9.73;;;6.67;;
7669;SDS011;3877;42.562;27.636;2023-02-01T06:23:03;10.07;;;7.00;;
7669;SDS011;3877;42.562;27.636;2023-02-01T06:25:30;7.97;;;5.90;;
7669;SDS011;3877;42.562;27.636;2023-02-01T06:27:59;11.63;;;6.67;;
7669;SDS011;3877;42.562;27.636;2023-02-01T06:30:28;13.00;;;7.97;;
7669;SDS011;3877;42.562;27.636;2023-02-01T06:32:55;10.30;;;6.73;;
7669;SDS011;3877;42.562;27.636;2023-02-01T06:35:22;7.83;;;5.90;;
7669;SDS011;3877;42.562;27.636;2023-02-01T06:37:49;10.33;;;6.80;;
7669;SDS011;3877;42.562;27.636;2023-02-01T06:40:16;10.50;;;6.77;;
7669;SDS011;3877;42.562;27.636;2023-02-01T06:42:43;22.27;;;8.23;;
7669;SDS011;3877;42.562;27.636;2023-02-01T06:45:10;8.47;;;5.70;;
7669;SDS011;3877;42.562;27.636;2023-02-01T06:47:38;9.17;;;5.30;;
7669;SDS011;3877;42.562;27.636;2023-02-01T06:50:05;8.40;;;6.00;;
7669;SDS011;3877;42.562;27.636;2023-02-01T06:52:32;19.73;;;6.47;;
7669;SDS011;3877;42.562;27.636;2023-02-01T06:54:59;9.43;;;6.23;;
7669;SDS011;3877;42.562;27.636;2023-02-01T06:57:26;9.03;;;5.13;;
7669;SDS011;3877;42.562;27.636;2023-02-01T06:59:55;7.23;;;5.17;;
7669;SDS011;3877;42.562;27.636;2023-02-01T07:02:23;12.03;;;6.20;;
7669;SDS011;3877;42.562;27.636;2023-02-01T07:04:51;7.77;;;5.50;;
7669;SDS011;3877;42.562;27.636;2023-02-01T07:07:18;8.50;;;5.70;;
7669;SDS011;3877;42.562;27.636;2023-02-01T07:09:47;9.57;;;6.57;;
7669;SDS011;3877;42.562;27.636;2023-02-01T07:12:14;11.90;;;7.47;;
7669;SDS011;3877;42.562;27.636;2023-02-01T07:14:41;8.73;;;5.80;;
7669;SDS011;3877;42.562;27.636;2023-02-01T07:17:08;7.07;;;5.53;;
7669;SDS011;3877;42.562;27.636;2023-02-01T07:19:35;8.27;;;5.50;;
7669;SDS011;3877;42.562;27.636;2023-02-01T07:22:04;8.37;;;5.70;;
7669;SDS011;3877;42.562;27.636;2023-02-01T07:24:30;8.63;;;5.40;;
7669;SDS011;3877;42.562;27.636;2023-02-01T07:26:57;6.20;;;4.80;;
7669;SDS011;3877;42.562;27.636;2023-02-01T07:29:24;6.30;;;4.60;;
7669;SDS011;3877;42.562;27.636;2023-02-01T07:31:51;8.07;;;5.20;;
7669;SDS011;3877;42.562;27.636;2023-02-01T07:34:18;8.67;;;5.30;;
7669;SDS011;3877;42.562;27.636;2023-02-01T07:36:44;7.77;;;5.07;;
7669;SDS011;3877;42.562;27.636;2023-02-01T07:39:13;7.07;;;4.80;;
7669;SDS011;3877;42.562;27.636;2023-02-01T07:41:39;17.50;;;5.60;;
7669;SDS011;3877;42.562;27.636;2023-02-01T07:44:06;8.23;;;5.43;;
7669;SDS011;3877;42.562;27.636;2023-02-01T07:46:33;5.47;;;4.20;;
7669;SDS011;3877;42.562;27.636;2023-02-01T07:49:01;8.43;;;3.97;;
7669;SDS011;3877;42.562;27.636;2023-02-01T07:51:28;5.67;;;4.30;;
7669;SDS011;3877;42.562;27.636;2023-02-01T07:53:55;8.33;;;4.83;;
7669;SDS011;3877;42.562;27.636;2023-02-01T07:56:23;6.13;;;4.40;;
7669;SDS011;3877;42.562;27.636;2023-02-01T07:58:51;12.30;;;5.20;;
7669;SDS011;3877;42.562;27.636;2023-02-01T08:01:18;7.97;;;5.03;;
7669;SDS011;3877;42.562;27.636;2023-02-01T08:03:50;10.13;;;4.20;;
7669;SDS011;3877;42.562;27.636;2023-02-01T08:06:17;7.87;;;4.13;;
7669;SDS011;3877;42.562;27.636;2023-02-01T08:08:45;9.57;;;5.20;;
7669;SDS011;3877;42.562;27.636;2023-02-01T08:11:12;12.90;;;6.07;;
7669;SDS011;3877;42.562;27.636;2023-02-01T08:13:41;7.93;;;4.90;;
7669;SDS011;3877;42.562;27.636;2023-02-01T08:16:09;8.53;;;4.13;;
7669;SDS011;3877;42.562;27.636;2023-02-01T08:18:36;9.30;;;4.47;;
7669;SDS011;3877;42.562;27.636;2023-02-01T08:21:03;10.10;;;4.57;;
7669;SDS011;3877;42.562;27.636;2023-02-01T08:23:30;8.63;;;4.80;;
7669;SDS011;3877;42.562;27.636;2023-02-01T08:26:03;7.87;;;4.60;;
7669;SDS011;3877;42.562;27.636;2023-02-01T08:28:30;6.87;;;4.87;;
7669;SDS011;3877;42.562;27.636;2023-02-01T08:30:58;7.50;;;4.97;;
7669;SDS011;3877;42.562;27.636;2023-02-01T08:33:25;9.47;;;5.43;;
7669;SDS011;3877;42.562;27.636;2023-02-01T08:35:52;9.43;;;4.17;;
7669;SDS011;3877;42.562;27.636;2023-02-01T08:38:19;5.90;;;3.90;;
7669;SDS011;3877;42.562;27.636;2023-02-01T08:40:45;7.43;;;4.60;;
7669;SDS011;3877;42.562;27.636;2023-02-01T08:43:12;7.10;;;4.27;;
7669;SDS011;3877;42.562;27.636;2023-02-01T08:45:39;8.40;;;5.00;;
7669;SDS011;3877;42.562;27.636;2023-02-01T08:48:07;7.77;;;3.73;;
7669;SDS011;3877;42.562;27.636;2023-02-01T08:50:34;6.53;;;4.70;;
7669;SDS011;3877;42.562;27.636;2023-02-01T08:53:01;6.00;;;4.30;;
7669;SDS011;3877;42.562;27.636;2023-02-01T08:55:28;9.43;;;4.40;;
7669;SDS011;3877;42.562;27.636;2023-02-01T08:57:55;6.73;;;3.83;;
7669;SDS011;3877;42.562;27.636;2023-02-01T09:00:22;7.10;;;4.20;;
7669;SDS011;3877;42.562;27.636;2023-02-01T09:02:49;8.07;;;4.23;;
7669;SDS011;3877;42.562;27.636;2023-02-01T09:05:17;6.77;;;3.90;;
7669;SDS011;3877;42.562;27.636;2023-02-01T09:07:47;11.50;;;4.80;;
7669;SDS011;3877;42.562;27.636;2023-02-01T09:10:14;6.07;;;4.23;;
7669;SDS011;3877;42.562;27.636;2023-02-01T09:12:41;8.83;;;4.97;;
7669;SDS011;3877;42.562;27.636;2023-02-01T09:15:08;8.37;;;4.20;;
7669;SDS011;3877;42.562;27.636;2023-02-01T09:17:35;8.90;;;5.10;;
7669;SDS011;3877;42.562;27.636;2023-02-01T09:20:02;8.97;;;4.20;;
7669;SDS011;3877;42.562;27.636;2023-02-01T09:22:30;9.60;;;4.30;;
7669;SDS011;3877;42.562;27.636;2023-02-01T09:24:57;7.37;;;3.80;;
7669;SDS011;3877;42.562;27.636;2023-02-01T09:27:24;5.87;;;4.20;;
7669;SDS011;3877;42.562;27.636;2023-02-01T09:29:51;6.90;;;3.40;;
7669;SDS011;3877;42.562;27.636;2023-02-01T09:32:18;5.43;;;3.70;;
7669;SDS011;3877;42.562;27.636;2023-02-01T09:34:45;6.30;;;3.10;;
7669;SDS011;3877;42.562;27.636;2023-02-01T09:37:12;6.90;;;3.20;;
7669;SDS011;3877;42.562;27.636;2023-02-01T09:39:40;6.30;;;3.30;;
7669;SDS011;3877;42.562;27.636;2023-02-01T09:42:14;6.93;;;3.70;;
7669;SDS011;3877;42.562;27.636;2023-02-01T09:44:49;6.93;;;3.77;;
7669;SDS011;3877;42.562;27.636;2023-02-01T09:47:17;4.30;;;3.20;;
7669;SDS011;3877;42.562;27.636;2023-02-01T09:49:49;5.27;;;3.40;;
7669;SDS011;3877;42.562;27.636;2023-02-01T09:52:19;5.70;;;3.10;;
7669;SDS011;3877;42.562;27.636;2023-02-01T09:54:50;6.20;;;3.03;;
7669;SDS011;3877;42.562;27.636;2023-02-01T09:57:19;4.60;;;2.93;;
7669;SDS011;3877;42.562;27.636;2023-02-01T09:59:49;3.97;;;2.97;;
7669;SDS011;3877;42.562;27.636;2023-02-01T10:02:19;5.03;;;2.83;;
7669;SDS011;3877;42.562;27.636;2023-02-01T10:04:46;5.50;;;2.70;;
7669;SDS011;3877;42.562;27.636;2023-02-01T10:07:17;4.93;;;2.67;;
7669;SDS011;3877;42.562;27.636;2023-02-01T10:09:54;6.50;;;3.13;;
7669;SDS011;3877;42.562;27.636;2023-02-01T10:15:19;4.73;;;2.97;;
7669;SDS011;3877;42.562;27.636;2023-02-01T10:17:51;5.83;;;3.37;;
7669;SDS011;3877;42.562;27.636;2023-02-01T10:20:20;4.07;;;2.50;;
7669;SDS011;3877;42.562;27.636;2023-02-01T10:22:52;4.83;;;3.00;;
7669;SDS011;3877;42.562;27.636;2023-02-01T10:25:23;4.30;;;2.63;;
7669;SDS011;3877;42.562;27.636;2023-02-01T10:27:52;3.57;;;2.43;;
7669;SDS011;3877;42.562;27.636;2023-02-01T10:30:20;4.77;;;3.07;;
7669;SDS011;3877;42.562;27.636;2023-02-01T10:32:47;5.10;;;2.50;;
7669;SDS011;3877;42.562;27.636;2023-02-01T10:35:16;5.40;;;3.00;;
7669;SDS011;3877;42.562;27.636;2023-02-01T10:37:43;4.70;;;2.80;;
7669;SDS011;3877;42.562;27.636;2023-02-01T10:40:13;6.80;;;2.93;;
7669;SDS011;3877;42.562;27.636;2023-02-01T10:42:43;6.63;;;2.67;;
7669;SDS011;3877;42.562;27.636;2023-02-01T10:45:12;6.80;;;2.83;;
7669;SDS011;3877;42.562;27.636;2023-02-01T10:47:39;6.17;;;2.87;;
7669;SDS011;3877;42.562;27.636;2023-02-01T10:50:11;5.80;;;2.73;;
7669;SDS011;3877;42.562;27.636;2023-02-01T10:52:41;4.47;;;2.60;;
7669;SDS011;3877;42.562;27.636;2023-02-01T10:58:15;4.83;;;3.17;;
7669;SDS011;3877;42.562;27.636;2023-02-01T11:00:43;4.50;;;2.53;;
7669;SDS011;3877;42.562;27.636;2023-02-01T11:05:56;6.63;;;3.47;;
7669;SDS011;3877;42.562;27.636;2023-02-01T11:08:22;6.17;;;2.97;;
7669;SDS011;3877;42.562;27.636;2023-02-01T11:10:56;5.70;;;2.53;;
7669;SDS011;3877;42.562;27.636;2023-02-01T11:13:27;4.63;;;2.10;;
7669;SDS011;3877;42.562;27.636;2023-02-01T11:15:55;4.83;;;2.43;;
7669;SDS011;3877;42.562;27.636;2023-02-01T11:18:25;3.13;;;2.07;;
7669;SDS011;3877;42.562;27.636;2023-02-01T11:20:53;3.27;;;2.30;;
7669;SDS011;3877;42.562;27.636;2023-02-01T11:23:21;2.90;;;2.20;;
7669;SDS011;3877;42.562;27.636;2023-02-01T11:25:49;4.17;;;2.13;;
7669;SDS011;3877;42.562;27.636;2023-02-01T11:28:17;6.10;;;2.17;;
7669;SDS011;3877;42.562;27.636;2023-02-01T11:30:46;3.60;;;2.23;;
7669;SDS011;3877;42.562;27.636;2023-02-01T11:33:14;3.93;;;2.47;;
7669;SDS011;3877;42.562;27.636;2023-02-01T11:35:42;4.73;;;2.10;;
7669;SDS011;3877;42.562;27.636;2023-02-01T11:38:17;3.17;;;2.27;;
7669;SDS011;3877;42.562;27.636;2023-02-01T11:40:46;2.90;;;2.10;;
7669;SDS011;3877;42.562;27.636;2023-02-01T11:43:22;5.10;;;2.40;;
7669;SDS011;3877;42.562;27.636;2023-02-01T11:45:59;7.73;;;2.33;;
7669;SDS011;3877;42.562;27.636;2023-02-01T11:48:27;5.73;;;2.47;;
7669;SDS011;3877;42.562;27.636;2023-02-01T11:51:01;4.80;;;2.50;;
7669;SDS011;3877;42.562;27.636;2023-02-01T11:53:34;5.90;;;2.57;;
7669;SDS011;3877;42.562;27.636;2023-02-01T11:56:06;3.43;;;2.50;;
7669;SDS011;3877;42.562;27.636;2023-02-01T12:01:24;5.83;;;2.80;;
7669;SDS011;3877;42.562;27.636;2023-02-01T12:03:57;4.70;;;2.50;;
7669;SDS011;3877;42.562;27.636;2023-02-01T12:06:29;7.87;;;3.13;;
7669;SDS011;3877;42.562;27.636;2023-02-01T12:09:02;5.83;;;3.40;;
7669;SDS011;3877;42.562;27.636;2023-02-01T12:11:36;7.07;;;3.87;;
7669;SDS011;3877;42.562;27.636;2023-02-01T12:14:12;3.80;;;2.60;;
7669;SDS011;3877;42.562;27.636;2023-02-01T12:16:45;4.73;;;3.07;;
7669;SDS011;3877;42.562;27.636;2023-02-01T12:19:17;4.43;;;2.70;;
7669;SDS011;3877;42.562;27.636;2023-02-01T12:21:52;4.47;;;2.93;;
7669;SDS011;3877;42.562;27.636;2023-02-01T12:24:46;6.93;;;3.23;;
7669;SDS011;3877;42.562;27.636;2023-02-01T12:27:31;4.50;;;2.13;;
7669;SDS011;3877;42.562;27.636;2023-02-01T12:30:10;6.67;;;4.97;;
7669;SDS011;3877;42.562;27.636;2023-02-01T12:32:48;5.63;;;3.80;;
7669;SDS011;3877;42.562;27.636;2023-02-01T12:35:26;3.60;;;2.50;;
7669;SDS011;3877;42.562;27.636;2023-02-01T12:37:59;5.30;;;2.80;;
7669;SDS011;3877;42.562;27.636;2023-02-01T12:40:33;8.73;;;2.50;;
7669;SDS011;3877;42.562;27.636;2023-02-01T12:43:03;3.20;;;2.50;;
7669;SDS011;3877;42.562;27.636;2023-02-01T12:45:31;3.67;;;2.40;;
7669;SDS011;3877;42.562;27.636;2023-02-01T12:48:02;5.53;;;2.83;;
7669;SDS011;3877;42.562;27.636;2023-02-01T12:50:33;4.27;;;3.00;;
7669;SDS011;3877;42.562;27.636;2023-02-01T12:53:03;5.50;;;3.40;;
7669;SDS011;3877;42.562;27.636;2023-02-01T12:55:34;5.33;;;3.40;;
7669;SDS011;3877;42.562;27.636;2023-02-01T12:58:03;4.87;;;3.53;;
7669;SDS011;3877;42.562;27.636;2023-02-01T13:00:34;4.33;;;3.20;;
7669;SDS011;3877;42.562;27.636;2023-02-01T13:03:05;6.70;;;2.77;;
7669;SDS011;3877;42.562;27.636;2023-02-01T13:05:40;4.87;;;2.50;;
7669;SDS011;3877;42.562;27.636;2023-02-01T13:08:10;2.87;;;2.43;;
7669;SDS011;3877;42.562;27.636;2023-02-01T13:10:38;3.60;;;2.60;;
7669;SDS011;3877;42.562;27.636;2023-02-01T13:13:08;3.37;;;2.20;;
7669;SDS011;3877;42.562;27.636;2023-02-01T13:15:38;3.10;;;2.30;;
7669;SDS011;3877;42.562;27.636;2023-02-01T13:18:09;4.60;;;2.60;;
7669;SDS011;3877;42.562;27.636;2023-02-01T13:20:42;2.83;;;2.00;;
7669;SDS011;3877;42.562;27.636;2023-02-01T13:23:13;4.57;;;2.47;;
7669;SDS011;3877;42.562;27.636;2023-02-01T13:25:43;3.77;;;2.50;;
7669;SDS011;3877;42.562;27.636;2023-02-01T13:28:14;6.13;;;2.23;;
7669;SDS011;3877;42.562;27.636;2023-02-01T13:30:51;3.67;;;2.50;;
7669;SDS011;3877;42.562;27.636;2023-02-01T13:33:32;3.90;;;1.93;;
7669;SDS011;3877;42.562;27.636;2023-02-01T13:36:23;4.00;;;2.33;;
7669;SDS011;3877;42.562;27.636;2023-02-01T13:41:41;2.77;;;2.10;;
7669;SDS011;3877;42.562;27.636;2023-02-01T13:44:10;4.67;;;2.37;;
7669;SDS011;3877;42.562;27.636;2023-02-01T13:46:39;2.90;;;2.40;;
7669;SDS011;3877;42.562;27.636;2023-02-01T13:49:13;8.77;;;4.47;;
7669;SDS011;3877;42.562;27.636;2023-02-01T13:51:43;4.77;;;2.87;;
7669;SDS011;3877;42.562;27.636;2023-02-01T13:54:23;6.67;;;2.47;;
7669;SDS011;3877;42.562;27.636;2023-02-01T13:56:51;5.30;;;2.60;;
7669;SDS011;3877;42.562;27.636;2023-02-01T13:59:48;3.33;;;2.20;;
7669;SDS011;3877;42.562;27.636;2023-02-01T14:05:02;3.70;;;2.60;;
7669;SDS011;3877;42.562;27.636;2023-02-01T14:07:29;5.67;;;3.60;;
7669;SDS011;3877;42.562;27.636;2023-02-01T14:09:56;9.47;;;4.83;;
7669;SDS011;3877;42.562;27.636;2023-02-01T14:12:43;5.93;;;3.20;;
7669;SDS011;3877;42.562;27.636;2023-02-01T14:15:21;6.40;;;4.60;;
7669;SDS011;3877;42.562;27.636;2023-02-01T14:17:49;8.60;;;3.43;;
7669;SDS011;3877;42.562;27.636;2023-02-01T14:26:07;9.70;;;5.60;;
7669;SDS011;3877;42.562;27.636;2023-02-01T14:28:36;5.40;;;2.83;;
7669;SDS011;3877;42.562;27.636;2023-02-01T14:31:13;5.00;;;2.70;;
7669;SDS011;3877;42.562;27.636;2023-02-01T14:33:41;5.50;;;3.57;;
7669;SDS011;3877;42.562;27.636;2023-02-01T14:36:09;7.50;;;3.00;;
7669;SDS011;3877;42.562;27.636;2023-02-01T14:38:37;6.67;;;4.03;;
7669;SDS011;3877;42.562;27.636;2023-02-01T14:41:13;4.97;;;2.60;;
7669;SDS011;3877;42.562;27.636;2023-02-01T14:43:50;8.77;;;4.37;;
7669;SDS011;3877;42.562;27.636;2023-02-01T14:46:18;7.63;;;4.80;;
7669;SDS011;3877;42.562;27.636;2023-02-01T14:48:45;5.10;;;3.53;;
7669;SDS011;3877;42.562;27.636;2023-02-01T14:51:13;6.33;;;3.70;;
7669;SDS011;3877;42.562;27.636;2023-02-01T14:53:41;9.27;;;3.53;;
7669;SDS011;3877;42.562;27.636;2023-02-01T14:56:11;6.47;;;3.73;;
7669;SDS011;3877;42.562;27.636;2023-02-01T14:58:41;6.53;;;3.90;;
7669;SDS011;3877;42.562;27.636;2023-02-01T15:01:20;6.87;;;4.00;;
7669;SDS011;3877;42.562;27.636;2023-02-01T15:03:48;8.03;;;4.30;;
7669;SDS011;3877;42.562;27.636;2023-02-01T15:09:07;4.63;;;2.63;;
7669;SDS011;3877;42.562;27.636;2023-02-01T15:14:18;6.30;;;3.40;;
7669;SDS011;3877;42.562;27.636;2023-02-01T15:16:45;6.30;;;3.90;;
7669;SDS011;3877;42.562;27.636;2023-02-01T15:19:19;10.83;;;4.73;;
7669;SDS011;3877;42.562;27.636;2023-02-01T15:21:47;8.33;;;4.97;;
7669;SDS011;3877;42.562;27.636;2023-02-01T15:24:17;5.70;;;3.83;;
7669;SDS011;3877;42.562;27.636;2023-02-01T15:26:45;12.57;;;6.23;;
7669;SDS011;3877;42.562;27.636;2023-02-01T15:29:12;9.77;;;4.20;;
7669;SDS011;3877;42.562;27.636;2023-02-01T15:31:41;6.43;;;3.13;;
7669;SDS011;3877;42.562;27.636;2023-02-01T15:34:09;5.90;;;3.40;;
7669;SDS011;3877;42.562;27.636;2023-02-01T15:36:36;5.77;;;3.00;;
7669;SDS011;3877;42.562;27.636;2023-02-01T15:41:53;5.80;;;3.03;;
7669;SDS011;3877;42.562;27.636;2023-02-01T15:44:24;7.40;;;3.50;;
7669;SDS011;3877;42.562;27.636;2023-02-01T15:46:55;6.80;;;3.80;;
7669;SDS011;3877;42.562;27.636;2023-02-01T15:49:24;5.67;;;3.50;;